sensor_id;sensor_type;location;lat;lon;timestamp;temperature;humidity
32215;DHT22;18708;53.124;23.190;2022-12-20T00:01:30;-4.10;47.40
32215;DHT22;18708;53.124;23.190;2022-12-20T00:03:58;-4.10;49.50
32215;DHT22;18708;53.124;23.190;2022-12-20T00:06:24;-4.10;48.10
32215;DHT22;18708;53.124;23.190;2022-12-20T00:08:56;-4.00;48.80
32215;DHT22;18708;53.124;23.190;2022-12-20T00:11:22;-4.00;48.70
32215;DHT22;18708;53.124;23.190;2022-12-20T00:13:49;-4.00;48.50
32215;DHT22;18708;53.124;23.190;2022-12-20T00:16:17;-3.90;48.20
32215;DHT22;18708;53.124;23.190;2022-12-20T00:18:43;-3.90;48.50
32215;DHT22;18708;53.124;23.190;2022-12-20T00:21:11;-3.80;47.30
32215;DHT22;18708;53.124;23.190;2022-12-20T00:23:38;-3.70;51.50
32215;DHT22;18708;53.124;23.190;2022-12-20T00:26:09;-3.70;54.10
32215;DHT22;18708;53.124;23.190;2022-12-20T00:28:36;-3.60;56.10
32215;DHT22;18708;53.124;23.190;2022-12-20T00:31:02;-3.50;59.20
32215;DHT22;18708;53.124;23.190;2022-12-20T00:33:28;-3.60;64.00
32215;DHT22;18708;53.124;23.190;2022-12-20T00:35:55;-3.50;66.50
32215;DHT22;18708;53.124;23.190;2022-12-20T00:38:22;-3.50;68.60
32215;DHT22;18708;53.124;23.190;2022-12-20T00:41:11;-3.50;69.80
32215;DHT22;18708;53.124;23.190;2022-12-20T00:43:38;-3.50;70.70
32215;DHT22;18708;53.124;23.190;2022-12-20T00:46:05;-3.50;65.50
32215;DHT22;18708;53.124;23.190;2022-12-20T00:48:32;-3.50;59.00
32215;DHT22;18708;53.124;23.190;2022-12-20T00:51:03;-3.50;57.70
32215;DHT22;18708;53.124;23.190;2022-12-20T00:53:29;-3.40;54.30
32215;DHT22;18708;53.124;23.190;2022-12-20T00:55:55;-3.40;53.20
32215;DHT22;18708;53.124;23.190;2022-12-20T00:58:21;-3.40;32.30
32215;DHT22;18708;53.124;23.190;2022-12-20T01:00:48;-3.30;35.90
32215;DHT22;18708;53.124;23.190;2022-12-20T01:03:13;-3.30;34.80
32215;DHT22;18708;53.124;23.190;2022-12-20T01:05:39;-3.30;36.60
32215;DHT22;18708;53.124;23.190;2022-12-20T01:08:05;-3.20;35.40
32215;DHT22;18708;53.124;23.190;2022-12-20T01:10:31;-3.10;35.50
32215;DHT22;18708;53.124;23.190;2022-12-20T01:12:57;-3.10;32.30
32215;DHT22;18708;53.124;23.190;2022-12-20T01:15:23;-3.00;1.00
32215;DHT22;18708;53.124;23.190;2022-12-20T01:17:48;-3.00;1.00
32215;DHT22;18708;53.124;23.190;2022-12-20T01:20:14;-2.90;6.30
32215;DHT22;18708;53.124;23.190;2022-12-20T01:22:40;-2.80;7.10
32215;DHT22;18708;53.124;23.190;2022-12-20T01:25:06;-2.70;2.20
32215;DHT22;18708;53.124;23.190;2022-12-20T01:27:32;-2.70;1.40
32215;DHT22;18708;53.124;23.190;2022-12-20T01:29:57;-2.60;3.40
32215;DHT22;18708;53.124;23.190;2022-12-20T01:32:25;-2.50;1.00
32215;DHT22;18708;53.124;23.190;2022-12-20T01:34:50;-2.50;1.00
32215;DHT22;18708;53.124;23.190;2022-12-20T01:37:18;-2.40;1.00
32215;DHT22;18708;53.124;23.190;2022-12-20T01:39:43;-2.40;1.00
32215;DHT22;18708;53.124;23.190;2022-12-20T01:42:13;-2.30;2.60
32215;DHT22;18708;53.124;23.190;2022-12-20T01:47:09;-2.30;16.10
32215;DHT22;18708;53.124;23.190;2022-12-20T01:49:47;-2.20;16.20
32215;DHT22;18708;53.124;23.190;2022-12-20T01:52:17;-2.20;4.90
32215;DHT22;18708;53.124;23.190;2022-12-20T01:54:55;-2.20;1.00
32215;DHT22;18708;53.124;23.190;2022-12-20T01:57:31;-2.10;1.00
32215;DHT22;18708;53.124;23.190;2022-12-20T01:59:59;-2.00;12.00
32215;DHT22;18708;53.124;23.190;2022-12-20T02:02:25;-2.00;16.80
32215;DHT22;18708;53.124;23.190;2022-12-20T02:04:51;-1.90;1.00
32215;DHT22;18708;53.124;23.190;2022-12-20T02:07:20;-1.90;13.50
32215;DHT22;18708;53.124;23.190;2022-12-20T02:09:48;-1.90;27.30
32215;DHT22;18708;53.124;23.190;2022-12-20T02:12:19;-1.80;6.10
32215;DHT22;18708;53.124;23.190;2022-12-20T02:27:42;-1.60;99.90
32215;DHT22;18708;53.124;23.190;2022-12-20T02:30:20;-1.50;99.90
32215;DHT22;18708;53.124;23.190;2022-12-20T02:32:54;-1.40;99.90
32215;DHT22;18708;53.124;23.190;2022-12-20T02:35:24;-1.40;99.90
32215;DHT22;18708;53.124;23.190;2022-12-20T02:38:02;-1.40;99.90
32215;DHT22;18708;53.124;23.190;2022-12-20T02:40:38;-1.40;99.90
32215;DHT22;18708;53.124;23.190;2022-12-20T02:43:07;-1.40;99.90
32215;DHT22;18708;53.124;23.190;2022-12-20T02:45:56;-1.30;99.90
32215;DHT22;18708;53.124;23.190;2022-12-20T02:48:24;-1.30;99.90
32215;DHT22;18708;53.124;23.190;2022-12-20T02:50:53;-1.30;99.90
32215;DHT22;18708;53.124;23.190;2022-12-20T02:53:21;-1.30;99.90
32215;DHT22;18708;53.124;23.190;2022-12-20T02:55:55;-1.30;99.90
32215;DHT22;18708;53.124;23.190;2022-12-20T02:58:31;-1.30;99.90
32215;DHT22;18708;53.124;23.190;2022-12-20T03:01:00;-1.30;99.90
32215;DHT22;18708;53.124;23.190;2022-12-20T03:03:31;-1.20;99.90
32215;DHT22;18708;53.124;23.190;2022-12-20T03:05:58;-1.20;99.90
32215;DHT22;18708;53.124;23.190;2022-12-20T03:08:24;-1.20;99.90
32215;DHT22;18708;53.124;23.190;2022-12-20T03:10:52;-1.20;99.90
32215;DHT22;18708;53.124;23.190;2022-12-20T03:13:20;-1.20;99.90
32215;DHT22;18708;53.124;23.190;2022-12-20T03:15:45;-1.10;99.90
32215;DHT22;18708;53.124;23.190;2022-12-20T03:18:11;-1.10;99.90
32215;DHT22;18708;53.124;23.190;2022-12-20T03:20:37;-1.10;99.90
32215;DHT22;18708;53.124;23.190;2022-12-20T03:23:03;-1.10;99.90
32215;DHT22;18708;53.124;23.190;2022-12-20T03:25:29;-1.00;99.90
32215;DHT22;18708;53.124;23.190;2022-12-20T03:27:54;-1.00;99.90
32215;DHT22;18708;53.124;23.190;2022-12-20T03:30:20;-0.90;99.90
32215;DHT22;18708;53.124;23.190;2022-12-20T03:32:45;-1.00;99.90
32215;DHT22;18708;53.124;23.190;2022-12-20T03:35:11;-0.80;99.90
32215;DHT22;18708;53.124;23.190;2022-12-20T03:37:37;-0.90;99.90
32215;DHT22;18708;53.124;23.190;2022-12-20T03:40:03;-0.90;99.90
32215;DHT22;18708;53.124;23.190;2022-12-20T03:42:29;-0.90;99.90
32215;DHT22;18708;53.124;23.190;2022-12-20T03:44:55;-0.90;99.90
32215;DHT22;18708;53.124;23.190;2022-12-20T03:47:21;-0.90;99.90
32215;DHT22;18708;53.124;23.190;2022-12-20T03:49:46;-0.80;99.90
32215;DHT22;18708;53.124;23.190;2022-12-20T03:52:13;-0.90;99.90
32215;DHT22;18708;53.124;23.190;2022-12-20T03:54:39;-0.90;99.90
32215;DHT22;18708;53.124;23.190;2022-12-20T03:57:06;-0.80;99.90
32215;DHT22;18708;53.124;23.190;2022-12-20T03:59:32;-0.80;99.90
32215;DHT22;18708;53.124;23.190;2022-12-20T04:01:58;-0.80;99.90
32215;DHT22;18708;53.124;23.190;2022-12-20T04:04:24;-0.80;99.90
32215;DHT22;18708;53.124;23.190;2022-12-20T04:06:49;-0.80;99.90
32215;DHT22;18708;53.124;23.190;2022-12-20T04:09:15;-0.80;99.90
32215;DHT22;18708;53.124;23.190;2022-12-20T04:11:40;-0.80;99.90
32215;DHT22;18708;53.124;23.190;2022-12-20T04:14:06;-0.70;99.90
32215;DHT22;18708;53.124;23.190;2022-12-20T04:16:32;-0.70;99.90
32215;DHT22;18708;53.124;23.190;2022-12-20T04:18:58;-0.70;99.90
32215;DHT22;18708;53.124;23.190;2022-12-20T04:21:29;-0.70;99.90
32215;DHT22;18708;53.124;23.190;2022-12-20T04:23:56;-0.60;99.90
32215;DHT22;18708;53.124;23.190;2022-12-20T04:26:22;-0.60;99.90
32215;DHT22;18708;53.124;23.190;2022-12-20T04:28:48;-0.60;99.90
32215;DHT22;18708;53.124;23.190;2022-12-20T04:31:14;-0.60;99.90
32215;DHT22;18708;53.124;23.190;2022-12-20T04:33:39;-0.50;99.90
32215;DHT22;18708;53.124;23.190;2022-12-20T04:36:06;-0.50;99.90
32215;DHT22;18708;53.124;23.190;2022-12-20T04:38:32;-0.50;99.90
32215;DHT22;18708;53.124;23.190;2022-12-20T04:40:58;-0.50;99.90
32215;DHT22;18708;53.124;23.190;2022-12-20T04:43:24;-0.40;99.90
32215;DHT22;18708;53.124;23.190;2022-12-20T04:45:51;-0.40;99.90
32215;DHT22;18708;53.124;23.190;2022-12-20T04:48:18;-0.40;99.90
32215;DHT22;18708;53.124;23.190;2022-12-20T04:50:51;-0.40;99.90
32215;DHT22;18708;53.124;23.190;2022-12-20T04:53:16;-0.40;99.90
32215;DHT22;18708;53.124;23.190;2022-12-20T04:56:01;-0.30;99.90
32215;DHT22;18708;53.124;23.190;2022-12-20T04:58:27;-0.30;99.90
32215;DHT22;18708;53.124;23.190;2022-12-20T05:00:53;-0.30;99.90
32215;DHT22;18708;53.124;23.190;2022-12-20T05:03:20;-0.30;99.90
32215;DHT22;18708;53.124;23.190;2022-12-20T05:05:46;-0.30;99.90
32215;DHT22;18708;53.124;23.190;2022-12-20T05:08:12;-0.30;99.90
32215;DHT22;18708;53.124;23.190;2022-12-20T05:10:38;-0.30;99.90
32215;DHT22;18708;53.124;23.190;2022-12-20T05:13:03;-0.20;99.90
32215;DHT22;18708;53.124;23.190;2022-12-20T05:15:29;-0.20;99.90
32215;DHT22;18708;53.124;23.190;2022-12-20T05:17:55;-0.20;99.90
32215;DHT22;18708;53.124;23.190;2022-12-20T05:20:28;-0.20;99.90
32215;DHT22;18708;53.124;23.190;2022-12-20T05:22:54;-0.20;99.90
32215;DHT22;18708;53.124;23.190;2022-12-20T05:25:48;-0.10;99.90
32215;DHT22;18708;53.124;23.190;2022-12-20T05:28:34;-0.10;99.90
32215;DHT22;18708;53.124;23.190;2022-12-20T05:31:00;-0.10;99.90
32215;DHT22;18708;53.124;23.190;2022-12-20T05:33:26;-0.10;99.90
32215;DHT22;18708;53.124;23.190;2022-12-20T05:35:52;-0.10;99.90
32215;DHT22;18708;53.124;23.190;2022-12-20T05:38:18;-0.10;99.90
32215;DHT22;18708;53.124;23.190;2022-12-20T05:40:46;0.00;99.90
32215;DHT22;18708;53.124;23.190;2022-12-20T05:43:13;0.00;99.90
32215;DHT22;18708;53.124;23.190;2022-12-20T05:45:44;0.00;99.90
32215;DHT22;18708;53.124;23.190;2022-12-20T05:48:09;0.00;99.90
32215;DHT22;18708;53.124;23.190;2022-12-20T05:50:35;0.10;99.90
32215;DHT22;18708;53.124;23.190;2022-12-20T05:53:01;0.10;99.90
32215;DHT22;18708;53.124;23.190;2022-12-20T05:55:27;0.10;99.90
32215;DHT22;18708;53.124;23.190;2022-12-20T05:57:53;0.20;99.90
32215;DHT22;18708;53.124;23.190;2022-12-20T06:00:18;0.20;99.90
32215;DHT22;18708;53.124;23.190;2022-12-20T06:02:44;0.20;99.90
32215;DHT22;18708;53.124;23.190;2022-12-20T06:05:10;0.20;99.90
32215;DHT22;18708;53.124;23.190;2022-12-20T06:07:35;0.20;99.90
32215;DHT22;18708;53.124;23.190;2022-12-20T06:10:04;0.20;99.90
32215;DHT22;18708;53.124;23.190;2022-12-20T06:12:30;0.30;99.90
32215;DHT22;18708;53.124;23.190;2022-12-20T06:14:55;0.30;99.90
32215;DHT22;18708;53.124;23.190;2022-12-20T06:17:21;0.30;99.90
32215;DHT22;18708;53.124;23.190;2022-12-20T06:19:47;0.30;99.90
32215;DHT22;18708;53.124;23.190;2022-12-20T06:22:13;0.30;99.90
32215;DHT22;18708;53.124;23.190;2022-12-20T06:24:39;0.30;99.90
32215;DHT22;18708;53.124;23.190;2022-12-20T06:27:05;0.30;99.90
32215;DHT22;18708;53.124;23.190;2022-12-20T06:29:33;0.30;99.90
32215;DHT22;18708;53.124;23.190;2022-12-20T06:32:00;0.30;99.90
32215;DHT22;18708;53.124;23.190;2022-12-20T06:34:26;0.40;99.90
32215;DHT22;18708;53.124;23.190;2022-12-20T06:36:52;0.40;99.90
32215;DHT22;18708;53.124;23.190;2022-12-20T06:39:17;0.40;99.90
32215;DHT22;18708;53.124;23.190;2022-12-20T06:41:43;0.40;99.90
32215;DHT22;18708;53.124;23.190;2022-12-20T06:44:09;0.40;99.90
32215;DHT22;18708;53.124;23.190;2022-12-20T06:46:34;0.40;99.90
32215;DHT22;18708;53.124;23.190;2022-12-20T06:49:00;0.40;99.90
32215;DHT22;18708;53.124;23.190;2022-12-20T06:51:25;0.50;99.90
32215;DHT22;18708;53.124;23.190;2022-12-20T06:53:51;0.50;99.90
32215;DHT22;18708;53.124;23.190;2022-12-20T06:56:17;0.50;99.90
32215;DHT22;18708;53.124;23.190;2022-12-20T06:58:44;0.50;99.90
32215;DHT22;18708;53.124;23.190;2022-12-20T07:01:11;0.50;99.90
32215;DHT22;18708;53.124;23.190;2022-12-20T07:03:36;0.50;99.90
32215;DHT22;18708;53.124;23.190;2022-12-20T07:06:02;0.50;99.90
32215;DHT22;18708;53.124;23.190;2022-12-20T07:08:27;0.60;99.90
32215;DHT22;18708;53.124;23.190;2022-12-20T07:10:53;0.50;99.90
32215;DHT22;18708;53.124;23.190;2022-12-20T07:13:19;0.60;99.90
32215;DHT22;18708;53.124;23.190;2022-12-20T07:15:45;0.60;99.90
32215;DHT22;18708;53.124;23.190;2022-12-20T07:18:10;0.60;99.90
32215;DHT22;18708;53.124;23.190;2022-12-20T07:20:37;0.70;99.90
32215;DHT22;18708;53.124;23.190;2022-12-20T07:23:02;0.70;99.90
32215;DHT22;18708;53.124;23.190;2022-12-20T07:25:28;0.70;99.90
32215;DHT22;18708;53.124;23.190;2022-12-20T07:27:54;0.70;99.90
32215;DHT22;18708;53.124;23.190;2022-12-20T07:30:19;0.70;99.90
32215;DHT22;18708;53.124;23.190;2022-12-20T07:32:46;0.70;99.90
32215;DHT22;18708;53.124;23.190;2022-12-20T07:35:14;0.70;99.90
32215;DHT22;18708;53.124;23.190;2022-12-20T07:37:41;0.70;99.90
32215;DHT22;18708;53.124;23.190;2022-12-20T07:40:08;0.80;99.90
32215;DHT22;18708;53.124;23.190;2022-12-20T07:42:37;0.80;99.90
32215;DHT22;18708;53.124;23.190;2022-12-20T07:45:03;0.80;99.90
32215;DHT22;18708;53.124;23.190;2022-12-20T07:47:30;0.80;99.90
32215;DHT22;18708;53.124;23.190;2022-12-20T07:49:56;0.80;99.90
32215;DHT22;18708;53.124;23.190;2022-12-20T07:52:23;0.80;99.90
32215;DHT22;18708;53.124;23.190;2022-12-20T07:54:54;0.80;99.90
32215;DHT22;18708;53.124;23.190;2022-12-20T07:57:34;0.80;99.90
32215;DHT22;18708;53.124;23.190;2022-12-20T08:00:03;0.80;99.90
32215;DHT22;18708;53.124;23.190;2022-12-20T08:02:37;0.80;99.90
32215;DHT22;18708;53.124;23.190;2022-12-20T08:05:09;0.90;99.90
32215;DHT22;18708;53.124;23.190;2022-12-20T08:07:37;0.80;99.90
32215;DHT22;18708;53.124;23.190;2022-12-20T08:10:06;0.80;99.90
32215;DHT22;18708;53.124;23.190;2022-12-20T08:12:35;0.90;99.90
32215;DHT22;18708;53.124;23.190;2022-12-20T08:15:01;0.90;99.90
32215;DHT22;18708;53.124;23.190;2022-12-20T08:17:27;0.90;99.90
32215;DHT22;18708;53.124;23.190;2022-12-20T08:19:52;0.90;99.90
32215;DHT22;18708;53.124;23.190;2022-12-20T08:22:18;0.90;99.90
32215;DHT22;18708;53.124;23.190;2022-12-20T08:24:44;0.90;99.90
32215;DHT22;18708;53.124;23.190;2022-12-20T08:27:12;1.00;99.90
32215;DHT22;18708;53.124;23.190;2022-12-20T08:29:39;1.00;99.90
32215;DHT22;18708;53.124;23.190;2022-12-20T08:32:07;1.00;99.90
32215;DHT22;18708;53.124;23.190;2022-12-20T08:34:33;1.00;99.90
32215;DHT22;18708;53.124;23.190;2022-12-20T08:36:59;1.00;99.90
32215;DHT22;18708;53.124;23.190;2022-12-20T08:39:24;1.00;99.90
32215;DHT22;18708;53.124;23.190;2022-12-20T08:41:50;1.00;99.90
32215;DHT22;18708;53.124;23.190;2022-12-20T08:44:15;1.00;99.90
32215;DHT22;18708;53.124;23.190;2022-12-20T08:46:41;1.00;99.90
32215;DHT22;18708;53.124;23.190;2022-12-20T08:49:07;1.00;99.90
32215;DHT22;18708;53.124;23.190;2022-12-20T08:51:32;1.00;99.90
32215;DHT22;18708;53.124;23.190;2022-12-20T08:53:58;1.00;99.90
32215;DHT22;18708;53.124;23.190;2022-12-20T08:56:24;1.00;99.90
32215;DHT22;18708;53.124;23.190;2022-12-20T08:58:49;1.10;99.90
32215;DHT22;18708;53.124;23.190;2022-12-20T09:01:18;1.10;99.90
32215;DHT22;18708;53.124;23.190;2022-12-20T09:03:46;1.10;99.90
32215;DHT22;18708;53.124;23.190;2022-12-20T09:06:15;1.10;99.90
32215;DHT22;18708;53.124;23.190;2022-12-20T09:08:41;1.10;99.90
32215;DHT22;18708;53.124;23.190;2022-12-20T09:11:12;1.10;99.90
32215;DHT22;18708;53.124;23.190;2022-12-20T09:13:39;1.10;99.90
32215;DHT22;18708;53.124;23.190;2022-12-20T09:16:06;1.20;99.90
32215;DHT22;18708;53.124;23.190;2022-12-20T09:18:32;1.20;99.90
32215;DHT22;18708;53.124;23.190;2022-12-20T09:21:02;1.20;99.90
32215;DHT22;18708;53.124;23.190;2022-12-20T09:23:29;1.20;99.90
32215;DHT22;18708;53.124;23.190;2022-12-20T09:25:55;1.20;99.90
32215;DHT22;18708;53.124;23.190;2022-12-20T09:28:25;1.20;99.90
32215;DHT22;18708;53.124;23.190;2022-12-20T09:30:51;1.20;99.90
32215;DHT22;18708;53.124;23.190;2022-12-20T09:33:16;1.10;99.90
32215;DHT22;18708;53.124;23.190;2022-12-20T09:35:46;1.20;99.90
32215;DHT22;18708;53.124;23.190;2022-12-20T09:38:12;1.20;99.90
32215;DHT22;18708;53.124;23.190;2022-12-20T09:40:44;1.20;99.90
32215;DHT22;18708;53.124;23.190;2022-12-20T09:43:10;1.30;99.90
32215;DHT22;18708;53.124;23.190;2022-12-20T09:45:36;1.30;99.90
32215;DHT22;18708;53.124;23.190;2022-12-20T09:48:02;1.30;99.90
32215;DHT22;18708;53.124;23.190;2022-12-20T09:57:16;1.40;99.90
32215;DHT22;18708;53.124;23.190;2022-12-20T09:59:36;1.30;99.90
32215;DHT22;18708;53.124;23.190;2022-12-20T10:02:10;1.30;99.90
32215;DHT22;18708;53.124;23.190;2022-12-20T10:04:38;1.30;99.90
32215;DHT22;18708;53.124;23.190;2022-12-20T10:09:55;1.40;99.90
32215;DHT22;18708;53.124;23.190;2022-12-20T10:25:52;1.50;99.90
32215;DHT22;18708;53.124;23.190;2022-12-20T10:28:19;1.50;99.90
32215;DHT22;18708;53.124;23.190;2022-12-20T10:30:48;1.60;99.90
32215;DHT22;18708;53.124;23.190;2022-12-20T10:33:22;1.40;99.90
32215;DHT22;18708;53.124;23.190;2022-12-20T10:35:49;1.40;99.90
32215;DHT22;18708;53.124;23.190;2022-12-20T10:38:15;1.40;99.90
32215;DHT22;18708;53.124;23.190;2022-12-20T10:40:45;1.50;99.90
32215;DHT22;18708;53.124;23.190;2022-12-20T10:43:19;1.50;99.90
32215;DHT22;18708;53.124;23.190;2022-12-20T10:46:03;1.40;99.90
32215;DHT22;18708;53.124;23.190;2022-12-20T10:48:34;1.50;99.90
32215;DHT22;18708;53.124;23.190;2022-12-20T10:53:34;1.40;99.90
32215;DHT22;18708;53.124;23.190;2022-12-20T10:56:16;1.40;99.90
32215;DHT22;18708;53.124;23.190;2022-12-20T10:58:51;1.50;99.90
32215;DHT22;18708;53.124;23.190;2022-12-20T11:01:27;1.50;99.90
32215;DHT22;18708;53.124;23.190;2022-12-20T11:04:02;1.50;99.90
32215;DHT22;18708;53.124;23.190;2022-12-20T11:09:33;1.60;99.90
32215;DHT22;18708;53.124;23.190;2022-12-20T11:14:27;1.50;99.90
32215;DHT22;18708;53.124;23.190;2022-12-20T11:16:54;1.50;99.90
32215;DHT22;18708;53.124;23.190;2022-12-20T11:34:08;1.50;99.90
32215;DHT22;18708;53.124;23.190;2022-12-20T11:39:29;1.60;99.90
32215;DHT22;18708;53.124;23.190;2022-12-20T11:45:04;1.60;99.90
32215;DHT22;18708;53.124;23.190;2022-12-20T11:53:06;1.60;99.90
32215;DHT22;18708;53.124;23.190;2022-12-20T11:55:38;1.60;99.90
32215;DHT22;18708;53.124;23.190;2022-12-20T12:01:09;1.60;99.90
32215;DHT22;18708;53.124;23.190;2022-12-20T12:03:41;1.70;99.90
32215;DHT22;18708;53.124;23.190;2022-12-20T12:06:19;1.70;99.90
32215;DHT22;18708;53.124;23.190;2022-12-20T12:09:05;1.70;99.90
32215;DHT22;18708;53.124;23.190;2022-12-20T12:11:36;1.70;99.90
32215;DHT22;18708;53.124;23.190;2022-12-20T12:14:04;1.70;99.90
32215;DHT22;18708;53.124;23.190;2022-12-20T12:16:38;1.70;99.90
32215;DHT22;18708;53.124;23.190;2022-12-20T12:19:09;1.70;99.90
32215;DHT22;18708;53.124;23.190;2022-12-20T12:21:47;1.70;99.90
32215;DHT22;18708;53.124;23.190;2022-12-20T12:24:26;1.80;99.90
32215;DHT22;18708;53.124;23.190;2022-12-20T12:26:55;1.80;99.90
32215;DHT22;18708;53.124;23.190;2022-12-20T12:29:22;1.80;99.90
32215;DHT22;18708;53.124;23.190;2022-12-20T12:31:56;1.70;99.90
32215;DHT22;18708;53.124;23.190;2022-12-20T12:37:19;1.70;99.90
32215;DHT22;18708;53.124;23.190;2022-12-20T12:45:57;1.70;99.90
32215;DHT22;18708;53.124;23.190;2022-12-20T12:49:00;1.70;99.90
32215;DHT22;18708;53.124;23.190;2022-12-20T12:51:29;1.70;99.90
32215;DHT22;18708;53.124;23.190;2022-12-20T12:54:23;1.70;99.90
32215;DHT22;18708;53.124;23.190;2022-12-20T12:56:51;1.70;99.90
32215;DHT22;18708;53.124;23.190;2022-12-20T13:04:30;1.80;99.90
32215;DHT22;18708;53.124;23.190;2022-12-20T13:13:11;1.90;99.90
32215;DHT22;18708;53.124;23.190;2022-12-20T13:20:35;1.80;99.90
32215;DHT22;18708;53.124;23.190;2022-12-20T13:30:41;1.80;99.90
32215;DHT22;18708;53.124;23.190;2022-12-20T13:33:22;1.80;99.90
32215;DHT22;18708;53.124;23.190;2022-12-20T13:36:28;1.80;99.90
32215;DHT22;18708;53.124;23.190;2022-12-20T13:38:51;1.80;99.90
32215;DHT22;18708;53.124;23.190;2022-12-20T13:41:31;1.80;99.90
32215;DHT22;18708;53.124;23.190;2022-12-20T13:44:07;1.80;99.90
32215;DHT22;18708;53.124;23.190;2022-12-20T13:46:53;1.80;99.90
32215;DHT22;18708;53.124;23.190;2022-12-20T13:49:26;1.80;99.90
32215;DHT22;18708;53.124;23.190;2022-12-20T13:52:20;1.80;99.90
32215;DHT22;18708;53.124;23.190;2022-12-20T13:54:49;1.80;99.90
32215;DHT22;18708;53.124;23.190;2022-12-20T13:57:41;1.80;99.90
32215;DHT22;18708;53.124;23.190;2022-12-20T14:00:21;1.80;99.90
32215;DHT22;18708;53.124;23.190;2022-12-20T14:02:48;1.80;99.90
32215;DHT22;18708;53.124;23.190;2022-12-20T14:05:22;1.80;99.90
32215;DHT22;18708;53.124;23.190;2022-12-20T14:08:02;1.80;99.90
32215;DHT22;18708;53.124;23.190;2022-12-20T14:10:30;1.70;99.90
32215;DHT22;18708;53.124;23.190;2022-12-20T14:12:56;1.70;99.90
32215;DHT22;18708;53.124;23.190;2022-12-20T14:15:25;1.70;99.90
32215;DHT22;18708;53.124;23.190;2022-12-20T14:17:51;1.70;99.90
32215;DHT22;18708;53.124;23.190;2022-12-20T14:20:26;1.70;99.90
32215;DHT22;18708;53.124;23.190;2022-12-20T14:23:11;1.70;99.90
32215;DHT22;18708;53.124;23.190;2022-12-20T14:25:44;1.70;99.90
32215;DHT22;18708;53.124;23.190;2022-12-20T14:28:36;1.70;99.90
32215;DHT22;18708;53.124;23.190;2022-12-20T14:31:03;1.70;99.90
32215;DHT22;18708;53.124;23.190;2022-12-20T14:33:36;1.70;99.90
32215;DHT22;18708;53.124;23.190;2022-12-20T14:38:45;1.70;99.90
32215;DHT22;18708;53.124;23.190;2022-12-20T14:41:32;1.70;99.90
32215;DHT22;18708;53.124;23.190;2022-12-20T14:44:20;1.70;99.90
32215;DHT22;18708;53.124;23.190;2022-12-20T14:46:59;1.70;99.90
32215;DHT22;18708;53.124;23.190;2022-12-20T14:49:33;1.70;99.90
32215;DHT22;18708;53.124;23.190;2022-12-20T14:52:33;1.60;99.90
32215;DHT22;18708;53.124;23.190;2022-12-20T14:55:05;1.70;99.90
32215;DHT22;18708;53.124;23.190;2022-12-20T15:00:04;1.70;99.90
32215;DHT22;18708;53.124;23.190;2022-12-20T15:10:53;1.70;99.90
32215;DHT22;18708;53.124;23.190;2022-12-20T15:13:37;1.70;99.90
32215;DHT22;18708;53.124;23.190;2022-12-20T15:16:11;1.70;99.90
32215;DHT22;18708;53.124;23.190;2022-12-20T15:18:37;1.70;99.90
32215;DHT22;18708;53.124;23.190;2022-12-20T15:21:18;1.70;99.90
32215;DHT22;18708;53.124;23.190;2022-12-20T15:23:50;1.70;99.90
32215;DHT22;18708;53.124;23.190;2022-12-20T15:26:18;1.70;99.90
32215;DHT22;18708;53.124;23.190;2022-12-20T15:28:44;1.70;99.90
32215;DHT22;18708;53.124;23.190;2022-12-20T15:31:16;1.70;99.90
32215;DHT22;18708;53.124;23.190;2022-12-20T15:33:42;1.70;99.90
32215;DHT22;18708;53.124;23.190;2022-12-20T15:36:19;1.70;99.90
32215;DHT22;18708;53.124;23.190;2022-12-20T15:38:46;1.70;99.90
32215;DHT22;18708;53.124;23.190;2022-12-20T15:41:26;1.70;99.90
32215;DHT22;18708;53.124;23.190;2022-12-20T15:44:03;1.70;99.90
32215;DHT22;18708;53.124;23.190;2022-12-20T15:46:30;1.70;99.90
32215;DHT22;18708;53.124;23.190;2022-12-20T15:48:56;1.80;99.90
32215;DHT22;18708;53.124;23.190;2022-12-20T15:51:32;1.80;99.90
32215;DHT22;18708;53.124;23.190;2022-12-20T15:54:00;1.80;99.90
32215;DHT22;18708;53.124;23.190;2022-12-20T15:56:26;1.80;99.90
32215;DHT22;18708;53.124;23.190;2022-12-20T15:58:54;1.80;99.90
32215;DHT22;18708;53.124;23.190;2022-12-20T16:01:30;1.80;99.90
32215;DHT22;18708;53.124;23.190;2022-12-20T16:03:58;1.70;99.90
32215;DHT22;18708;53.124;23.190;2022-12-20T16:06:24;1.80;99.90
32215;DHT22;18708;53.124;23.190;2022-12-20T16:08:49;1.80;99.90
32215;DHT22;18708;53.124;23.190;2022-12-20T16:11:27;1.80;99.90
32215;DHT22;18708;53.124;23.190;2022-12-20T16:13:57;1.70;99.90
32215;DHT22;18708;53.124;23.190;2022-12-20T16:16:28;1.80;99.90
32215;DHT22;18708;53.124;23.190;2022-12-20T16:18:54;1.70;99.90
32215;DHT22;18708;53.124;23.190;2022-12-20T16:21:25;1.80;99.90
32215;DHT22;18708;53.124;23.190;2022-12-20T16:23:52;1.70;99.90
32215;DHT22;18708;53.124;23.190;2022-12-20T16:26:20;1.70;99.90
32215;DHT22;18708;53.124;23.190;2022-12-20T16:28:47;1.70;99.90
32215;DHT22;18708;53.124;23.190;2022-12-20T16:33:51;1.80;99.90
32215;DHT22;18708;53.124;23.190;2022-12-20T16:36:17;1.80;99.90
32215;DHT22;18708;53.124;23.190;2022-12-20T16:38:43;1.70;99.90
32215;DHT22;18708;53.124;23.190;2022-12-20T16:41:12;1.70;99.90
32215;DHT22;18708;53.124;23.190;2022-12-20T16:43:39;1.80;99.90
32215;DHT22;18708;53.124;23.190;2022-12-20T16:46:05;1.70;99.90
32215;DHT22;18708;53.124;23.190;2022-12-20T16:48:31;1.70;99.90
32215;DHT22;18708;53.124;23.190;2022-12-20T16:50:57;1.70;99.90
32215;DHT22;18708;53.124;23.190;2022-12-20T16:53:22;1.70;99.90
32215;DHT22;18708;53.124;23.190;2022-12-20T16:55:48;1.70;99.90
32215;DHT22;18708;53.124;23.190;2022-12-20T16:58:14;1.70;99.90
32215;DHT22;18708;53.124;23.190;2022-12-20T17:00:40;1.70;99.90
32215;DHT22;18708;53.124;23.190;2022-12-20T17:03:05;1.70;99.90
32215;DHT22;18708;53.124;23.190;2022-12-20T17:05:33;1.70;99.90
32215;DHT22;18708;53.124;23.190;2022-12-20T17:08:00;1.70;99.90
32215;DHT22;18708;53.124;23.190;2022-12-20T17:10:26;1.70;99.90
32215;DHT22;18708;53.124;23.190;2022-12-20T17:12:54;1.70;99.90
32215;DHT22;18708;53.124;23.190;2022-12-20T17:15:23;1.70;99.90
32215;DHT22;18708;53.124;23.190;2022-12-20T17:17:50;1.70;99.90
32215;DHT22;18708;53.124;23.190;2022-12-20T17:20:17;1.60;99.90
32215;DHT22;18708;53.124;23.190;2022-12-20T17:22:44;1.70;99.90
32215;DHT22;18708;53.124;23.190;2022-12-20T17:25:18;1.70;99.90
32215;DHT22;18708;53.124;23.190;2022-12-20T17:27:45;1.70;99.90
32215;DHT22;18708;53.124;23.190;2022-12-20T17:30:11;1.70;99.90
32215;DHT22;18708;53.124;23.190;2022-12-20T17:32:37;1.70;99.90
32215;DHT22;18708;53.124;23.190;2022-12-20T17:35:03;1.70;99.90
32215;DHT22;18708;53.124;23.190;2022-12-20T17:37:28;1.70;99.90
32215;DHT22;18708;53.124;23.190;2022-12-20T17:39:54;1.70;99.90
32215;DHT22;18708;53.124;23.190;2022-12-20T17:42:19;1.70;99.90
32215;DHT22;18708;53.124;23.190;2022-12-20T17:44:47;1.70;99.90